Time;durP1;ratioP1;P1;durP2;ratioP2;P2;SDS_P1;SDS_P2;PMS_P1;PMS_P2;Temp;Humidity;BMP_temperature;BMP_pressure;BME280_temperature;BME280_humidity;BME280_pressure;Samples;Min_cycle;Max_cycle;Signal;HPM_P1;HPM_P2
2021/10/14 00:00:37;;;;;;;5.03;3.90;;;7.00;99.90;;;;;;4946181;28;20553;-55
2021/10/14 00:03:05;;;;;;;4.57;4.05;;;7.10;99.90;;;;;;4950607;28;20201;-55
2021/10/14 00:05:31;;;;;;;4.25;3.80;;;6.80;99.90;;;;;;4951470;28;20272;-55
2021/10/14 00:07:56;;;;;;;3.90;3.50;;;6.90;99.90;;;;;;4949657;28;20649;-54
2021/10/14 00:10:22;;;;;;;5.77;4.00;;;6.80;99.90;;;;;;4951381;28;20515;-54
2021/10/14 00:12:48;;;;;;;4.90;3.80;;;6.70;99.90;;;;;;4951578;28;20187;-54
2021/10/14 00:15:14;;;;;;;4.30;3.90;;;6.90;99.90;;;;;;4951582;28;20468;-55
2021/10/14 00:17:39;;;;;;;5.20;4.70;;;6.90;99.90;;;;;;4947796;28;20608;-55
2021/10/14 00:20:07;;;;;;;4.90;4.37;;;6.70;99.90;;;;;;4950744;28;20228;-55
2021/10/14 00:22:32;;;;;;;3.95;3.45;;;6.80;99.90;;;;;;4951426;28;20597;-54
2021/10/14 00:24:58;;;;;;;6.60;4.03;;;6.90;99.90;;;;;;4949979;28;20203;-55
2021/10/14 00:27:24;;;;;;;3.57;3.27;;;6.70;99.90;;;;;;4951713;28;20195;-55
2021/10/14 00:29:50;;;;;;;6.40;4.20;;;6.80;99.90;;;;;;4948723;28;20454;-55
2021/10/14 00:32:16;;;;;;;8.73;4.10;;;6.90;99.90;;;;;;4950003;28;20271;-55
2021/10/14 00:34:41;;;;;;;4.70;4.30;;;6.70;99.90;;;;;;4947922;28;20189;-54
2021/10/14 00:37:07;;;;;;;5.70;4.10;;;6.60;99.90;;;;;;4951140;28;20442;-55
2021/10/14 00:39:32;;;;;;;4.60;3.80;;;6.40;99.90;;;;;;4951391;28;20212;-55
2021/10/14 00:41:58;;;;;;;4.50;3.70;;;6.80;99.90;;;;;;4954938;28;20200;-54
2021/10/14 00:44:24;;;;;;;5.97;4.40;;;6.40;99.90;;;;;;4954656;28;20196;-55
2021/10/14 00:46:51;;;;;;;5.30;4.17;;;5.70;99.90;;;;;;4954076;28;20199;-55
2021/10/14 00:49:17;;;;;;;7.32;4.53;;;6.30;99.90;;;;;;4954490;28;20225;-55
2021/10/14 00:51:43;;;;;;;5.07;4.32;;;5.90;99.90;;;;;;4952706;28;20196;-54
2021/10/14 00:54:11;;;;;;;6.00;4.10;;;6.80;99.90;;;;;;4955639;28;20180;-55
2021/10/14 00:56:36;;;;;;;5.47;4.20;;;6.40;99.90;;;;;;4955059;28;20444;-55
2021/10/14 00:59:02;;;;;;;7.60;4.07;;;6.00;99.90;;;;;;4954156;28;20231;-55
2021/10/14 01:01:28;;;;;;;5.53;3.83;;;6.10;99.90;;;;;;4950427;28;20218;-55
2021/10/14 01:03:53;;;;;;;5.53;3.50;;;6.40;99.90;;;;;;4954588;28;20223;-55
2021/10/14 01:06:20;;;;;;;5.43;4.60;;;6.40;99.90;;;;;;4954405;28;20326;-55
2021/10/14 01:08:45;;;;;;;4.22;3.75;;;6.40;99.90;;;;;;4950747;28;20215;-55
2021/10/14 01:11:11;;;;;;;4.87;4.10;;;6.60;99.90;;;;;;4946366;28;20192;-55
2021/10/14 01:13:37;;;;;;;3.60;3.30;;;6.50;99.90;;;;;;4954422;28;20185;-54
2021/10/14 01:16:04;;;;;;;5.17;3.33;;;6.60;99.90;;;;;;4951623;28;20196;-55
2021/10/14 01:18:30;;;;;;;3.97;3.58;;;6.10;99.90;;;;;;4956307;28;20481;-55
2021/10/14 01:20:56;;;;;;;4.00;3.40;;;6.30;99.90;;;;;;4954108;28;20200;-55
2021/10/14 01:23:22;;;;;;;5.50;3.60;;;6.20;99.90;;;;;;4953933;28;20696;-54
2021/10/14 01:25:48;;;;;;;4.67;4.00;;;6.20;99.90;;;;;;4949477;28;20191;-54
2021/10/14 01:28:15;;;;;;;5.18;3.63;;;6.10;99.90;;;;;;4959695;28;20229;-55
2021/10/14 01:30:41;;;;;;;4.20;3.80;;;6.00;99.90;;;;;;4950064;28;20191;-55
2021/10/14 01:33:07;;;;;;;4.10;3.70;;;6.10;99.90;;;;;;4954172;28;20226;-55
2021/10/14 01:35:33;;;;;;;5.10;3.88;;;6.20;99.90;;;;;;4953796;28;20179;-55
2021/10/14 01:37:59;;;;;;;3.93;3.50;;;5.90;99.90;;;;;;4952496;28;20201;-55
2021/10/14 01:40:24;;;;;;;7.10;3.70;;;6.00;99.90;;;;;;4945677;28;20458;-55
2021/10/14 01:42:50;;;;;;;3.93;3.53;;;6.10;99.90;;;;;;4954167;28;20684;-55
2021/10/14 01:45:16;;;;;;;4.10;3.53;;;6.10;99.90;;;;;;4951165;28;20195;-55
2021/10/14 01:47:42;;;;;;;3.73;3.43;;;6.10;99.90;;;;;;4952809;28;20206;-55
2021/10/14 01:50:08;;;;;;;4.20;3.80;;;6.10;99.90;;;;;;4953547;28;20193;-55
2021/10/14 01:52:34;;;;;;;6.07;4.05;;;6.00;99.90;;;;;;4953884;28;20186;-55
2021/10/14 01:54:59;;;;;;;3.80;3.50;;;6.10;99.90;;;;;;4957497;28;20232;-55
2021/10/14 01:57:25;;;;;;;4.03;3.63;;;6.10;99.90;;;;;;4951793;28;20191;-55
2021/10/14 01:59:51;;;;;;;7.60;4.90;;;6.10;99.90;;;;;;4950743;28;20211;-55
2021/10/14 02:02:16;;;;;;;3.90;3.60;;;6.30;99.90;;;;;;4953334;28;20212;-54
2021/10/14 02:04:42;;;;;;;4.90;3.83;;;6.20;99.90;;;;;;4955398;28;20660;-55
2021/10/14 02:07:08;;;;;;;5.80;4.60;;;6.30;99.90;;;;;;4961084;28;20186;-55
2021/10/14 02:09:34;;;;;;;4.33;3.93;;;6.10;99.90;;;;;;4953627;28;20490;-55
2021/10/14 02:11:59;;;;;;;4.97;4.00;;;6.20;99.90;;;;;;4945571;28;20186;-55
2021/10/14 02:14:25;;;;;;;4.20;3.57;;;5.80;99.90;;;;;;4950802;28;20266;-55
2021/10/14 02:16:50;;;;;;;4.20;3.80;;;6.20;99.90;;;;;;4950339;28;20218;-55
2021/10/14 02:19:16;;;;;;;4.53;3.87;;;6.10;99.90;;;;;;4952122;28;20363;-55
2021/10/14 02:21:42;;;;;;;6.10;4.00;;;6.20;99.90;;;;;;4952159;28;20264;-55
2021/10/14 02:24:08;;;;;;;5.00;3.37;;;6.10;99.90;;;;;;4949697;28;20442;-55
2021/10/14 02:26:33;;;;;;;5.87;3.67;;;6.30;99.90;;;;;;4951476;28;20195;-55
2021/10/14 02:28:59;;;;;;;3.70;3.27;;;6.30;99.90;;;;;;4948198;28;20225;-55
2021/10/14 02:31:25;;;;;;;6.17;4.10;;;6.30;99.90;;;;;;4950481;28;20203;-55
2021/10/14 02:33:50;;;;;;;5.40;4.20;;;6.20;99.90;;;;;;4944720;28;20185;-55
2021/10/14 02:36:16;;;;;;;4.60;3.77;;;6.40;99.90;;;;;;4951237;28;20227;-54
2021/10/14 02:38:42;;;;;;;4.77;3.80;;;6.00;99.90;;;;;;4951149;28;20705;-55
2021/10/14 02:41:07;;;;;;;5.23;3.73;;;5.70;99.90;;;;;;4946717;28;20594;-55
2021/10/14 02:43:33;;;;;;;4.97;4.33;;;5.60;99.90;;;;;;4952749;28;20219;-55
2021/10/14 02:45:59;;;;;;;5.27;3.80;;;6.10;99.90;;;;;;4944311;28;20183;-55
2021/10/14 02:48:24;;;;;;;5.80;4.00;;;6.30;99.90;;;;;;4952037;28;20214;-55
2021/10/14 02:50:50;;;;;;;4.17;3.70;;;6.20;99.90;;;;;;4949690;28;20197;-55
2021/10/14 02:53:16;;;;;;;5.07;4.10;;;6.10;99.90;;;;;;4952588;28;20199;-55
2021/10/14 02:55:41;;;;;;;6.83;3.80;;;6.00;99.90;;;;;;4950579;29;20270;-55
2021/10/14 02:58:07;;;;;;;4.47;4.00;;;5.50;99.90;;;;;;4951811;28;20722;-55
2021/10/14 03:00:33;;;;;;;4.90;3.80;;;6.00;99.90;;;;;;4947526;28;20892;-55
2021/10/14 03:02:58;;;;;;;4.97;4.47;;;6.10;99.90;;;;;;4959975;28;20189;-55
2021/10/14 03:05:24;;;;;;;4.70;4.10;;;6.10;99.90;;;;;;4952449;28;20366;-55
2021/10/14 03:07:50;;;;;;;5.17;4.40;;;6.00;99.90;;;;;;4950711;28;20217;-55
2021/10/14 03:10:15;;;;;;;5.27;3.87;;;5.80;99.90;;;;;;4952075;28;20699;-55
2021/10/14 03:12:41;;;;;;;4.07;3.67;;;6.20;99.90;;;;;;4952783;28;20183;-55
2021/10/14 03:15:07;;;;;;;4.23;3.83;;;6.00;99.90;;;;;;4950428;28;20267;-54
2021/10/14 03:17:33;;;;;;;6.18;3.83;;;5.80;99.90;;;;;;4952227;28;20173;-54
2021/10/14 03:19:58;;;;;;;3.60;3.30;;;6.00;99.90;;;;;;4952808;28;20207;-54
2021/10/14 03:22:24;;;;;;;4.47;3.70;;;6.00;99.90;;;;;;4951971;28;20189;-55
2021/10/14 03:24:50;;;;;;;3.83;3.53;;;6.10;99.90;;;;;;4950109;28;20179;-55
2021/10/14 03:27:15;;;;;;;4.40;4.00;;;6.00;99.90;;;;;;4952060;28;21066;-54
2021/10/14 03:29:41;;;;;;;4.03;3.63;;;6.00;99.90;;;;;;4950741;28;20715;-55
2021/10/14 03:32:07;;;;;;;4.20;3.73;;;6.10;99.90;;;;;;4942895;28;20269;-55
2021/10/14 03:34:33;;;;;;;3.87;3.47;;;6.10;99.90;;;;;;4952001;28;20217;-54
2021/10/14 03:36:59;;;;;;;4.90;3.90;;;6.00;99.90;;;;;;4951991;28;20184;-55
2021/10/14 03:39:25;;;;;;;6.20;3.90;;;5.90;99.90;;;;;;4950239;28;20209;-55
2021/10/14 03:41:50;;;;;;;3.80;3.30;;;5.80;99.90;;;;;;4946878;28;20593;-55
2021/10/14 03:44:17;;;;;;;7.03;4.27;;;5.80;99.90;;;;;;4950630;28;20458;-54
2021/10/14 03:46:43;;;;;;;5.20;4.25;;;5.90;99.90;;;;;;4947873;28;20399;-55
2021/10/14 03:49:09;;;;;;;4.22;3.80;;;5.70;99.90;;;;;;4951212;28;20761;-55
2021/10/14 03:51:35;;;;;;;4.40;4.00;;;5.80;99.90;;;;;;4951988;28;20273;-55
2021/10/14 03:54:00;;;;;;;4.43;4.00;;;5.70;99.90;;;;;;4949703;28;20253;-55
2021/10/14 03:56:26;;;;;;;7.70;3.90;;;5.80;99.90;;;;;;4942508;28;20526;-55
2021/10/14 03:58:52;;;;;;;4.35;3.67;;;5.70;99.90;;;;;;4946430;28;20215;-55
2021/10/14 04:01:18;;;;;;;3.73;3.40;;;5.80;99.90;;;;;;4948144;28;20197;-55
2021/10/14 04:03:44;;;;;;;4.37;3.93;;;5.60;99.90;;;;;;4951380;29;20461;-54
2021/10/14 04:06:10;;;;;;;4.30;3.47;;;5.80;99.90;;;;;;4942665;28;20984;-55
2021/10/14 04:08:36;;;;;;;4.45;3.42;;;5.60;99.90;;;;;;4947107;28;20899;-55
2021/10/14 04:11:03;;;;;;;4.87;3.80;;;5.70;99.90;;;;;;4947536;28;20191;-54
2021/10/14 04:13:29;;;;;;;4.85;3.65;;;5.20;99.90;;;;;;4955664;28;20461;-55
2021/10/14 04:15:55;;;;;;;5.00;4.20;;;5.70;99.90;;;;;;4949197;28;20557;-55
2021/10/14 04:18:21;;;;;;;9.03;4.57;;;5.80;99.90;;;;;;4949886;28;20210;-55
2021/10/14 04:20:46;;;;;;;5.53;4.40;;;5.80;99.90;;;;;;4955312;29;20235;-56
2021/10/14 04:23:12;;;;;;;5.10;4.40;;;5.70;99.90;;;;;;4953408;28;20680;-55
2021/10/14 04:25:38;;;;;;;4.57;4.17;;;5.80;99.90;;;;;;4951998;28;20201;-55
2021/10/14 04:28:04;;;;;;;5.27;3.40;;;5.80;99.90;;;;;;4954760;28;20556;-54
2021/10/14 04:30:30;;;;;;;4.10;3.15;;;5.80;99.90;;;;;;4950017;28;20202;-55
2021/10/14 04:32:56;;;;;;;4.43;3.70;;;5.80;99.90;;;;;;4953848;28;20195;-55
2021/10/14 04:35:22;;;;;;;4.50;4.10;;;5.80;99.90;;;;;;4954249;28;20316;-55
2021/10/14 04:37:48;;;;;;;5.70;4.22;;;5.90;99.90;;;;;;4954416;28;20472;-55
2021/10/14 04:40:14;;;;;;;5.03;4.40;;;6.00;99.90;;;;;;4952496;28;20745;-54
2021/10/14 04:42:39;;;;;;;5.17;3.90;;;5.90;99.90;;;;;;4953687;28;20824;-54
2021/10/14 04:45:06;;;;;;;6.40;4.60;;;6.10;99.90;;;;;;4953248;28;20450;-55
2021/10/14 04:47:31;;;;;;;6.18;3.97;;;5.90;99.90;;;;;;4951421;28;20216;-55
2021/10/14 04:49:57;;;;;;;5.27;3.73;;;6.10;99.90;;;;;;4948824;28;20782;-55
2021/10/14 04:52:23;;;;;;;5.53;4.10;;;6.00;99.90;;;;;;4953956;28;20705;-55
2021/10/14 04:54:48;;;;;;;5.10;4.10;;;6.30;99.90;;;;;;4959939;28;20191;-54
2021/10/14 04:57:14;;;;;;;4.83;3.77;;;6.00;99.90;;;;;;4952688;28;20675;-55
2021/10/14 04:59:40;;;;;;;4.40;4.00;;;6.20;99.90;;;;;;4952518;28;20240;-54
2021/10/14 05:02:05;;;;;;;3.90;3.53;;;6.30;99.90;;;;;;4944003;28;20190;-56
2021/10/14 05:04:31;;;;;;;6.20;4.47;;;6.10;99.90;;;;;;4953815;28;20650;-55
2021/10/14 05:06:57;;;;;;;3.50;3.23;;;6.20;99.90;;;;;;4947636;28;20566;-54
2021/10/14 05:09:22;;;;;;;4.70;3.50;;;5.80;99.90;;;;;;4939487;28;20243;-55
2021/10/14 05:11:48;;;;;;;3.50;3.20;;;6.30;99.90;;;;;;4953811;28;20568;-55
2021/10/14 05:14:14;;;;;;;4.73;3.50;;;6.20;99.90;;;;;;4953283;28;20329;-55
2021/10/14 05:16:39;;;;;;;4.50;3.90;;;6.20;99.90;;;;;;4952053;28;20730;-55
2021/10/14 05:19:05;;;;;;;4.63;3.80;;;6.10;99.90;;;;;;4950886;28;20571;-55
2021/10/14 05:21:31;;;;;;;5.27;4.17;;;6.40;99.90;;;;;;4957172;28;20329;-55
2021/10/14 05:24:00;;;;;;;4.27;3.97;;;6.40;99.90;;;;;;4950105;28;20581;-55
2021/10/14 05:26:31;;;;;;;3.70;3.40;;;5.90;99.90;;;;;;4943027;28;20213;-55
2021/10/14 05:28:57;;;;;;;6.18;4.63;;;6.80;99.90;;;;;;4944760;28;20277;-55
2021/10/14 05:31:23;;;;;;;4.55;3.50;;;6.50;99.90;;;;;;4946656;28;20279;-55
2021/10/14 05:33:49;;;;;;;4.00;3.50;;;6.70;99.90;;;;;;4953164;28;20266;-55
2021/10/14 05:36:15;;;;;;;4.07;3.65;;;6.50;99.90;;;;;;4953509;28;20428;-55
2021/10/14 05:38:42;;;;;;;5.50;3.70;;;6.40;99.90;;;;;;4953238;28;20286;-55
2021/10/14 05:41:08;;;;;;;4.13;3.72;;;6.70;99.90;;;;;;4941069;28;20187;-55
2021/10/14 05:43:34;;;;;;;4.20;3.80;;;6.70;99.90;;;;;;4952238;28;20181;-55
2021/10/14 05:45:59;;;;;;;4.73;3.50;;;6.80;99.90;;;;;;4951643;28;20452;-55
2021/10/14 05:48:25;;;;;;;4.20;3.80;;;6.60;99.90;;;;;;4953877;28;20217;-55
2021/10/14 05:50:51;;;;;;;4.07;3.67;;;6.70;99.90;;;;;;4948645;28;20185;-55
2021/10/14 05:53:16;;;;;;;4.70;3.50;;;7.00;99.90;;;;;;4957485;28;20283;-55
2021/10/14 05:55:42;;;;;;;4.40;3.70;;;7.00;99.90;;;;;;4953110;29;20683;-55
2021/10/14 05:58:08;;;;;;;4.90;4.07;;;6.70;99.90;;;;;;4954622;28;20217;-55
2021/10/14 06:00:33;;;;;;;6.87;3.70;;;6.90;99.90;;;;;;4945476;28;20250;-55
2021/10/14 06:02:59;;;;;;;4.90;3.90;;;6.90;99.90;;;;;;4952890;28;20203;-55
2021/10/14 06:05:25;;;;;;;5.33;3.90;;;6.90;99.90;;;;;;4952924;28;20681;-55
2021/10/14 06:07:50;;;;;;;4.20;3.80;;;7.10;99.90;;;;;;4950920;28;20259;-55
2021/10/14 06:10:16;;;;;;;4.00;3.70;;;6.40;99.90;;;;;;4953146;28;20475;-55
2021/10/14 06:12:42;;;;;;;4.60;3.85;;;7.20;99.90;;;;;;4957356;28;20281;-54
2021/10/14 06:15:08;;;;;;;5.07;3.73;;;7.00;99.90;;;;;;4950327;28;20594;-55
2021/10/14 06:17:34;;;;;;;5.05;4.60;;;7.20;99.90;;;;;;4952159;28;20288;-56
2021/10/14 06:20:00;;;;;;;6.33;3.33;;;7.20;99.90;;;;;;4959325;28;20223;-55
2021/10/14 06:22:25;;;;;;;5.20;3.93;;;7.30;99.90;;;;;;4961265;28;20944;-55
2021/10/14 06:24:51;;;;;;;4.80;4.40;;;7.10;99.90;;;;;;4946845;28;20483;-60
2021/10/14 06:27:17;;;;;;;5.33;4.17;;;7.00;99.90;;;;;;4947889;28;20620;-59
2021/10/14 06:29:44;;;;;;;5.07;4.10;;;7.20;99.90;;;;;;4949172;28;20699;-58
2021/10/14 06:32:09;;;;;;;5.80;3.97;;;7.50;99.90;;;;;;4945131;28;20244;-57
2021/10/14 06:34:35;;;;;;;5.70;4.47;;;7.30;99.90;;;;;;4956561;28;20220;-57
2021/10/14 06:37:01;;;;;;;6.50;3.97;;;7.50;99.90;;;;;;4962954;28;20192;-56
2021/10/14 06:39:27;;;;;;;8.33;3.97;;;7.50;99.90;;;;;;4951866;28;20475;-55
2021/10/14 06:41:55;;;;;;;5.07;4.43;;;7.70;99.90;;;;;;4946053;28;20228;-57
2021/10/14 06:44:21;;;;;;;4.72;4.05;;;7.90;99.90;;;;;;4948634;28;20189;-56
2021/10/14 06:46:47;;;;;;;7.47;4.00;;;7.60;99.90;;;;;;4947809;28;21959;-58
2021/10/14 06:49:13;;;;;;;5.47;4.40;;;7.90;99.90;;;;;;4950832;28;20224;-57
2021/10/14 06:51:39;;;;;;;4.07;3.67;;;7.60;99.90;;;;;;4953186;28;20819;-57
2021/10/14 06:54:04;;;;;;;6.77;4.80;;;7.50;99.90;;;;;;4951120;28;20192;-57
2021/10/14 06:56:30;;;;;;;4.50;4.10;;;7.50;99.90;;;;;;4952065;28;20199;-55
2021/10/14 06:58:56;;;;;;;6.20;4.83;;;7.80;99.90;;;;;;4952166;28;20260;-56
2021/10/14 07:01:22;;;;;;;6.17;4.47;;;7.70;99.90;;;;;;4946864;28;20749;-57
2021/10/14 07:03:47;;;;;;;4.60;4.20;;;7.90;99.90;;;;;;4943057;28;20465;-56
2021/10/14 07:06:15;;;;;;;4.80;4.30;;;7.90;99.90;;;;;;4946546;28;20490;-58
2021/10/14 07:08:40;;;;;;;5.68;3.85;;;8.10;99.90;;;;;;4947333;29;20220;-58
2021/10/14 07:11:06;;;;;;;6.13;5.07;;;8.30;99.90;;;;;;4953730;28;20197;-57
2021/10/14 07:13:33;;;;;;;7.57;5.07;;;8.40;99.90;;;;;;4951728;28;20762;-58
2021/10/14 07:15:58;;;;;;;4.70;4.15;;;8.40;99.90;;;;;;4949717;28;20185;-58
2021/10/14 07:18:24;;;;;;;6.57;3.90;;;8.70;99.90;;;;;;4950678;28;20268;-57
2021/10/14 07:20:50;;;;;;;7.23;4.20;;;9.00;99.90;;;;;;4982704;28;20189;-58
2021/10/14 07:23:16;;;;;;;5.80;3.97;;;8.90;99.90;;;;;;4945894;28;20436;-57
2021/10/14 07:25:43;;;;;;;4.72;4.22;;;9.10;99.90;;;;;;4951610;28;20200;-57
2021/10/14 07:28:09;;;;;;;6.82;4.25;;;9.20;99.90;;;;;;4951506;28;20858;-57
2021/10/14 07:30:36;;;;;;;4.18;3.35;;;9.20;99.90;;;;;;4947155;28;20190;-55
2021/10/14 07:33:05;;;;;;;4.95;4.03;;;9.50;99.90;;;;;;4952854;28;20177;-57
2021/10/14 07:35:32;;;;;;;7.28;4.53;;;9.80;99.90;;;;;;4948590;28;20474;-57
2021/10/14 07:37:59;;;;;;;4.55;3.97;;;9.80;99.90;;;;;;4951435;28;20189;-56
2021/10/14 07:40:25;;;;;;;4.53;3.10;;;9.80;99.90;;;;;;4944902;28;20209;-56
2021/10/14 07:42:51;;;;;;;6.32;3.40;;;9.90;99.90;;;;;;4948869;28;20195;-55
2021/10/14 07:45:16;;;;;;;4.23;3.30;;;10.50;99.90;;;;;;4950621;28;20192;-56
2021/10/14 07:47:42;;;;;;;3.50;3.20;;;10.50;99.90;;;;;;4950449;28;20273;-56
2021/10/14 07:50:08;;;;;;;5.97;4.17;;;10.70;99.90;;;;;;4954302;28;20682;-55
2021/10/14 07:52:34;;;;;;;6.05;3.42;;;10.70;99.90;;;;;;4952515;28;20740;-54
2021/10/14 07:55:00;;;;;;;3.97;3.60;;;10.90;99.90;;;;;;4949315;29;20184;-59
2021/10/14 07:57:25;;;;;;;7.67;4.40;;;11.00;99.90;;;;;;4954486;28;20189;-57
2021/10/14 07:59:51;;;;;;;3.70;3.40;;;11.00;99.90;;;;;;4946996;28;20205;-58
2021/10/14 08:02:17;;;;;;;6.40;3.70;;;11.20;99.90;;;;;;4951994;29;20669;-58
2021/10/14 08:04:44;;;;;;;3.25;2.95;;;11.30;99.90;;;;;;4952614;28;20659;-55
2021/10/14 08:07:10;;;;;;;8.05;3.78;;;11.40;99.90;;;;;;4951184;28;20193;-55
2021/10/14 08:09:36;;;;;;;6.83;4.70;;;11.50;99.90;;;;;;4947080;28;20360;-57
2021/10/14 08:12:01;;;;;;;6.60;3.80;;;11.20;99.90;;;;;;4950684;29;20183;-55
2021/10/14 08:14:27;;;;;;;4.27;3.43;;;11.30;99.90;;;;;;4955295;28;20201;-56
2021/10/14 08:16:53;;;;;;;4.53;4.03;;;11.30;99.90;;;;;;4954098;28;20189;-55
2021/10/14 08:19:18;;;;;;;6.60;3.90;;;11.50;99.90;;;;;;4960642;28;20600;-56
2021/10/14 08:21:44;;;;;;;3.40;3.10;;;11.30;99.90;;;;;;4953032;28;20289;-54
2021/10/14 08:24:10;;;;;;;4.10;3.10;;;11.20;99.90;;;;;;4952530;28;20190;-56
2021/10/14 08:26:35;;;;;;;5.33;3.63;;;11.60;99.70;;;;;;4951767;28;20688;-54
2021/10/14 08:29:01;;;;;;;5.20;3.37;;;11.80;99.50;;;;;;4956674;28;20314;-56
2021/10/14 08:31:27;;;;;;;4.97;4.53;;;12.00;99.60;;;;;;4948664;29;20210;-56
2021/10/14 08:33:53;;;;;;;5.20;3.90;;;12.40;98.60;;;;;;4955632;28;20285;-56
2021/10/14 08:36:19;;;;;;;3.60;3.30;;;12.40;98.40;;;;;;4949465;28;20214;-54
2021/10/14 08:38:47;;;;;;;6.70;3.97;;;12.20;98.10;;;;;;4952473;28;20318;-56
2021/10/14 08:41:17;;;;;;;3.33;3.03;;;12.30;98.00;;;;;;4949942;28;20190;-56
2021/10/14 08:43:44;;;;;;;3.83;3.28;;;12.70;97.30;;;;;;4954710;28;20191;-55
2021/10/14 08:46:11;;;;;;;3.20;2.88;;;12.60;97.30;;;;;;4948091;28;20196;-55
2021/10/14 08:48:37;;;;;;;3.88;3.30;;;12.60;97.50;;;;;;4947683;28;20298;-56
2021/10/14 08:51:03;;;;;;;3.92;3.13;;;12.40;97.60;;;;;;4950652;28;20222;-56
2021/10/14 08:53:29;;;;;;;5.80;3.70;;;12.60;97.70;;;;;;4955985;28;20636;-57
2021/10/14 08:55:55;;;;;;;3.33;2.70;;;12.50;98.10;;;;;;4953806;28;20633;-56
2021/10/14 08:58:21;;;;;;;2.53;2.20;;;12.60;97.70;;;;;;4952429;28;20704;-54
2021/10/14 09:01:09;;;;;;;4.50;2.97;;;12.40;97.30;;;;;;4951772;28;20211;-55
2021/10/14 09:03:39;;;;;;;6.47;3.33;;;12.50;97.50;;;;;;4952526;28;20196;-55
2021/10/14 09:06:12;;;;;;;3.00;2.70;;;12.90;98.10;;;;;;4955074;28;20191;-56
2021/10/14 09:08:48;;;;;;;3.03;2.70;;;13.10;97.80;;;;;;4953656;28;20235;-56
2021/10/14 09:11:16;;;;;;;3.30;3.00;;;13.40;97.20;;;;;;4954102;28;20185;-56
2021/10/14 09:13:58;;;;;;;3.47;3.17;;;13.60;96.70;;;;;;4955431;28;20540;-54
2021/10/14 09:16:28;;;;;;;3.83;2.78;;;13.90;96.10;;;;;;4949314;28;20702;-55
2021/10/14 09:19:14;;;;;;;3.15;2.58;;;14.20;95.70;;;;;;4952230;28;20225;-55
2021/10/14 09:21:43;;;;;;;3.17;2.50;;;14.30;94.30;;;;;;4956582;28;20569;-58
2021/10/14 09:24:38;;;;;;;3.10;2.50;;;14.80;94.00;;;;;;4946595;28;20197;-57
2021/10/14 09:27:06;;;;;;;3.88;3.10;;;14.70;93.90;;;;;;4944216;28;20188;-58
2021/10/14 09:29:34;;;;;;;2.83;2.63;;;14.60;93.60;;;;;;4942116;28;20729;-55
2021/10/14 09:32:05;;;;;;;2.53;2.20;;;15.20;92.60;;;;;;4948189;28;20193;-55
2021/10/14 09:34:39;;;;;;;3.30;2.25;;;15.70;92.40;;;;;;4944190;28;20216;-56
2021/10/14 09:37:18;;;;;;;2.72;2.50;;;15.30;91.80;;;;;;4950103;28;20188;-56
2021/10/14 09:40:04;;;;;;;3.55;2.70;;;15.50;91.60;;;;;;4943031;28;20285;-56
2021/10/14 09:42:58;;;;;;;4.10;2.53;;;16.00;91.30;;;;;;4949408;28;20198;-56
2021/10/14 09:45:26;;;;;;;3.42;2.70;;;16.10;90.80;;;;;;4949335;28;20236;-55
2021/10/14 09:48:08;;;;;;;2.72;2.38;;;15.90;90.20;;;;;;4951304;28;20213;-56
2021/10/14 09:50:40;;;;;;;2.30;2.10;;;15.80;90.30;;;;;;4946274;28;20200;-56
2021/10/14 09:53:11;;;;;;;2.53;2.33;;;16.10;89.10;;;;;;4948575;28;20189;-57
2021/10/14 09:55:37;;;;;;;3.58;2.40;;;16.40;87.00;;;;;;4950157;28;20608;-56
2021/10/14 09:58:05;;;;;;;2.40;2.20;;;16.50;87.10;;;;;;4951337;28;20203;-59
2021/10/14 10:00:31;;;;;;;3.58;3.28;;;16.80;86.80;;;;;;4945493;28;20447;-56
2021/10/14 10:02:58;;;;;;;4.53;3.00;;;16.40;86.90;;;;;;4947820;28;20198;-57
2021/10/14 10:05:25;;;;;;;3.03;2.00;;;16.10;88.80;;;;;;4952316;29;20200;-55
2021/10/14 10:07:52;;;;;;;2.67;1.90;;;15.90;85.90;;;;;;4952405;29;20197;-56
2021/10/14 10:10:21;;;;;;;2.00;1.90;;;15.80;86.90;;;;;;4945634;28;20569;-56
2021/10/14 10:12:48;;;;;;;3.58;2.28;;;16.00;86.30;;;;;;4947866;28;20189;-56
2021/10/14 10:15:14;;;;;;;2.42;1.80;;;15.70;86.40;;;;;;4952709;28;20176;-55
2021/10/14 10:17:42;;;;;;;1.77;1.67;;;15.90;86.10;;;;;;4951375;28;20192;-57
2021/10/14 10:20:10;;;;;;;4.10;2.05;;;15.60;84.70;;;;;;4948024;28;20239;-56
2021/10/14 10:22:35;;;;;;;2.60;2.33;;;15.80;86.10;;;;;;4950186;28;20280;-54
2021/10/14 10:25:25;;;;;;;4.30;2.50;;;15.70;86.30;;;;;;4949329;29;20272;-56
2021/10/14 10:27:57;;;;;;;2.42;2.22;;;15.70;86.90;;;;;;4945621;28;20239;-55
2021/10/14 10:30:40;;;;;;;9.13;8.23;;;15.90;86.10;;;;;;4941906;28;20186;-55
2021/10/14 10:33:08;;;;;;;3.40;2.95;;;15.80;86.60;;;;;;4948854;28;20197;-55
2021/10/14 10:35:46;;;;;;;2.28;2.05;;;15.40;85.00;;;;;;4948344;29;20215;-55
2021/10/14 10:38:24;;;;;;;2.35;1.80;;;16.20;84.10;;;;;;4949056;28;20466;-55
2021/10/14 10:40:55;;;;;;;4.30;1.88;;;16.20;84.20;;;;;;4950597;28;20185;-56
2021/10/14 10:43:30;;;;;;;3.92;2.55;;;16.40;84.30;;;;;;4946609;28;20366;-55
2021/10/14 10:46:04;;;;;;;3.83;2.30;;;16.30;84.00;;;;;;4947529;28;20714;-55
2021/10/14 10:48:37;;;;;;;3.42;2.47;;;16.30;83.70;;;;;;4945112;28;20840;-55
2021/10/14 10:51:04;;;;;;;2.75;2.00;;;16.50;84.00;;;;;;4944550;28;20463;-56
2021/10/14 10:53:40;;;;;;;3.30;2.30;;;16.60;83.50;;;;;;4940206;28;20188;-56
2021/10/14 10:56:07;;;;;;;4.57;2.10;;;16.90;82.80;;;;;;4942486;28;20182;-56
2021/10/14 10:58:44;;;;;;;4.95;2.45;;;17.10;81.10;;;;;;4949027;28;20234;-54
2021/10/14 11:01:11;;;;;;;3.50;2.30;;;17.30;78.80;;;;;;4942975;28;20237;-56
2021/10/14 11:03:37;;;;;;;3.63;2.47;;;16.90;79.40;;;;;;4942978;28;20240;-55
2021/10/14 11:06:10;;;;;;;3.70;2.30;;;17.30;81.10;;;;;;4945170;28;20193;-56
2021/10/14 11:08:36;;;;;;;2.70;2.50;;;17.50;80.50;;;;;;4944009;28;20506;-55
2021/10/14 11:11:08;;;;;;;3.00;2.10;;;17.50;80.30;;;;;;4944492;28;20240;-55
2021/10/14 11:13:42;;;;;;;2.45;1.77;;;17.30;79.20;;;;;;4943664;28;20560;-53
2021/10/14 11:16:12;;;;;;;1.73;1.63;;;17.10;78.30;;;;;;4946079;28;20191;-55
2021/10/14 11:18:43;;;;;;;1.98;1.80;;;17.00;79.20;;;;;;4946260;28;20604;-55
2021/10/14 11:21:11;;;;;;;3.03;2.17;;;16.90;79.40;;;;;;4940043;28;20203;-56
2021/10/14 11:23:38;;;;;;;2.20;1.92;;;16.80;79.80;;;;;;4947545;28;20208;-56
2021/10/14 11:26:19;;;;;;;2.30;2.10;;;16.90;79.90;;;;;;4945062;28;20196;-54
2021/10/14 11:28:57;;;;;;;2.97;2.67;;;17.00;79.20;;;;;;4946415;28;20298;-56
2021/10/14 11:31:29;;;;;;;2.53;2.30;;;17.00;80.50;;;;;;4942608;28;20249;-54
2021/10/14 11:34:02;;;;;;;3.10;2.80;;;16.80;80.90;;;;;;4946229;28;20197;-54
2021/10/14 11:36:28;;;;;;;3.40;2.92;;;16.90;80.60;;;;;;4947134;28;20189;-55
2021/10/14 11:39:21;;;;;;;3.60;2.43;;;17.20;81.50;;;;;;4944801;28;20216;-54
2021/10/14 11:42:03;;;;;;;3.47;2.80;;;17.20;80.20;;;;;;4939808;28;20335;-53
2021/10/14 11:44:32;;;;;;;3.85;3.28;;;17.30;80.70;;;;;;4941804;28;20270;-57
2021/10/14 11:46:59;;;;;;;3.58;3.00;;;17.30;81.30;;;;;;4944424;28;20199;-56
2021/10/14 11:49:26;;;;;;;3.50;2.72;;;17.00;82.00;;;;;;4944812;28;20213;-56
2021/10/14 11:51:51;;;;;;;2.88;2.67;;;16.80;82.90;;;;;;4944961;28;20188;-56
2021/10/14 11:54:19;;;;;;;6.50;3.10;;;16.40;83.60;;;;;;4938298;28;20189;-55
2021/10/14 11:56:51;;;;;;;3.80;3.05;;;16.80;83.50;;;;;;4944880;28;20445;-55
2021/10/14 11:59:22;;;;;;;3.30;3.10;;;16.70;83.50;;;;;;4938917;28;20231;-56
2021/10/14 12:02:13;;;;;;;8.05;4.97;;;16.90;83.40;;;;;;4942698;28;20186;-56
2021/10/14 12:04:48;;;;;;;3.17;2.85;;;17.20;83.50;;;;;;4944611;28;20239;-55
2021/10/14 12:07:27;;;;;;;3.83;3.30;;;17.20;82.70;;;;;;4943357;28;20265;-55
2021/10/14 12:09:54;;;;;;;3.55;3.05;;;17.70;83.40;;;;;;4945139;28;20348;-55
2021/10/14 12:12:24;;;;;;;3.42;2.60;;;17.50;82.10;;;;;;4947016;29;20203;-54
2021/10/14 12:15:07;;;;;;;4.25;3.85;;;17.00;82.00;;;;;;4943046;28;20804;-54
2021/10/14 12:17:44;;;;;;;3.47;2.75;;;16.90;83.20;;;;;;4946498;28;20682;-53
2021/10/14 12:20:11;;;;;;;5.75;3.67;;;16.80;84.20;;;;;;4945321;28;20721;-55
2021/10/14 12:22:42;;;;;;;3.33;3.03;;;16.80;85.00;;;;;;4942094;28;20668;-56
2021/10/14 12:25:08;;;;;;;3.22;2.88;;;17.20;83.00;;;;;;4943312;28;20220;-57
2021/10/14 12:27:47;;;;;;;3.53;3.07;;;17.60;82.00;;;;;;4942407;28;20284;-53
2021/10/14 12:30:37;;;;;;;2.90;2.58;;;17.50;81.40;;;;;;4944416;28;20480;-54
2021/10/14 12:33:12;;;;;;;3.47;3.13;;;17.70;81.90;;;;;;4948408;28;20276;-54
2021/10/14 12:35:55;;;;;;;2.50;2.30;;;17.80;81.40;;;;;;4951416;28;20561;-56
2021/10/14 12:38:22;;;;;;;4.63;2.38;;;17.60;81.20;;;;;;4952388;28;20209;-56
2021/10/14 12:41:12;;;;;;;4.25;2.90;;;17.60;81.70;;;;;;4948150;28;20193;-56
2021/10/14 12:43:42;;;;;;;3.88;2.85;;;17.50;81.50;;;;;;4943318;28;20204;-56
2021/10/14 12:51:50;;;;;;;4.82;2.90;;;17.30;83.80;;;;;;4950270;28;20177;-55
2021/10/14 12:54:18;;;;;;;2.40;2.20;;;17.40;84.00;;;;;;4951780;29;20191;-54
2021/10/14 12:56:49;;;;;;;2.70;2.47;;;17.40;82.70;;;;;;4952672;28;20184;-55
2021/10/14 12:59:17;;;;;;;4.82;2.80;;;17.30;84.10;;;;;;4949065;28;20598;-61
2021/10/14 13:01:45;;;;;;;3.22;2.70;;;17.10;83.70;;;;;;4949251;28;20697;-55